Cebollita Spring, Valles Caldera, New Mexico Weather observations

Data are for 10 minute period ending at time listed.
 Day   Time   Solar   Ave.   Ave.  Ave.  Vector  Max.   Baro.   Total    
  of    of     Rad.   Air    Rel.  Wind   Wind   Wind  Press.  Precip.   
Year   Day            Temp.  Hum.  Speed  Dir.   Gust                    
2016   (MST)  Kw/m2    F      %     mph   deg.    mph    mb.     in.     
-------------------------------------------------------------------------
 124    4:30   0.00   26.5   100    2.3     6     4.8   99999.0    0.00 
 124    4:40   0.00   26.5   100    2.1     9     3.6   99999.0    0.00 
 124    4:50   0.00   26.7   100    1.6    12     3.0   99999.0    0.00 
 124    5:00   0.00   26.8    99    1.9     9     4.2   99999.0    0.00 
 124    5:10   0.00   26.6    99    2.8   356     4.2   99999.0    0.00 
 124    5:20   0.01   26.9    99    3.0   354     5.4   99999.0    0.00 
 124    5:30   0.01   26.9    98    3.1   354     5.7   99999.0    0.00 
 124    5:40   0.02   26.9    98    2.7   355     4.2   99999.0    0.00 
 124    5:50   0.02   27.0    98    2.5   352     4.8   99999.0    0.00 
 124    6:00   0.05   27.4    98    3.0   349     4.2   99999.0    0.00 
 124    6:10   0.05   28.2    98    3.0   347     4.2   99999.0    0.00 
 124    6:20   0.06   29.5    97    3.5   342     4.8   99999.0    0.00 
 124    6:30   0.05   31.3    93    3.4   340     4.8   99999.0    0.00 
 124    6:40   0.31   33.6    84    4.0   344     7.2   99999.0    0.00 
 124    6:50   0.36   36.8    74    3.6   349     6.0   99999.0    0.00 
 124    7:00   0.40   39.2    66    4.1   345     7.2   99999.0    0.00 
 124    7:10   0.43   40.9    61    5.0   348     9.0   99999.0    0.00 
 124    7:20   0.48   42.0    57    5.2   343    10.2   99999.0    0.00 
 124    7:30   0.52   43.2    55    6.1   342    10.8   99999.0    0.00 
 124    7:40   0.56   44.1    53    6.7   318    11.9   99999.0    0.00 
 124    7:50   0.60   45.3    51    3.9   308     9.0   99999.0    0.00 
 124    8:00   0.64   46.5    48    3.3     4     8.4   99999.0    0.00 
 124    8:10   0.68   47.3    48    3.0   349     6.0   99999.0    0.00 
 124    8:20   0.72   47.8    45    3.6   341     7.2   99999.0    0.00 
 124    8:30   0.75   48.3    44    4.9   318    10.8   99999.0    0.00 
 124    8:40   0.78   48.8    42    3.6   338     9.0   99999.0    0.00 
 124    8:50   0.81   50.1    41    3.5   332     8.1   99999.0    0.00 
 124    9:00   0.85   50.5    40    4.4   325     9.6   99999.0    0.00 
 124    9:10   0.90   50.6    37    4.2   331     8.4   99999.0    0.00 
 124    9:20   0.94   51.2    35    4.4    10     9.6   99999.0    0.00 
 124    9:30   0.91   52.1    34    3.9    12     8.4   99999.0    0.00 
 124    9:40   0.14   50.1    37    3.2   322     7.2   99999.0    0.00 
 124    9:50   0.29   49.1    37    3.1    14     6.6   99999.0    0.00 
 124   10:00   0.32   49.2    39    3.8    51     9.0   99999.0    0.00 
 124   10:10   1.23   52.4    34    4.3    45     8.4   99999.0    0.00 
 124   10:20   0.49   54.1    32    4.2    23     9.6   99999.0    0.00 
 124   10:30   0.65   52.9    32    2.5    38     5.4   99999.0    0.00 
 124   10:40   0.37   51.9    32    4.4     6     7.2   99999.0    0.00 
 124   10:50   0.32   51.5    34    2.8    97     8.4   99999.0    0.00 
 124   11:00   0.30   51.2    40    4.6   260     7.8   99999.0    0.00 
 124   11:10   0.23   50.5    41    2.7   322     4.8   99999.0    0.00 
 124   11:20   0.23   50.5    41    2.2   253     4.8   99999.0    0.00 
 124   11:30   0.25   50.6    42    1.9   182     3.6   99999.0    0.00 
 124   11:40   1.13   52.8    40    3.7   151     7.8   99999.0    0.00 
 124   11:50   1.11   55.6    36    4.4   140     8.4   99999.0    0.00 
 124   12:00   1.09   56.2    35    5.8   217    11.9   99999.0    0.00 
 124   12:10   1.10   54.6    36    5.2   219    10.2   99999.0    0.00 
 124   12:20   0.88   56.1    35    6.0   228    13.1   99999.0    0.00 
 124   12:30   1.00   54.4    35    3.6   260    10.2   99999.0    0.00 
 124   12:40   0.44   55.1    35    3.7   184     7.2   99999.0    0.00 
 124   12:50   0.28   53.1    37    2.9   173     6.3   99999.0    0.00 
 124   13:00   0.29   53.3    38    4.2   170    11.9   99999.0    0.00 
 124   13:10   0.19   52.3    41    4.4   124     9.6   99999.0    0.00 
 124   13:20   0.77   53.2    40    4.2   132    10.2   99999.0    0.00 
 124   13:30   0.52   53.7    38    4.6   180    12.2   99999.0    0.00 
 124   13:40   0.85   56.7    34    3.8   154     8.4   99999.0    0.00 
 124   13:50   0.26   55.4    34    2.9     2     6.6   99999.0    0.00 
 124   14:00   0.19   53.5    39    4.5   241    12.5   99999.0    0.00 
 124   14:10   0.77   54.2    39    6.0   276    12.5   99999.0    0.00 
 124   14:20   0.87   56.6    32    5.0   230    11.3   99999.0    0.00 
 124   14:30   0.62   55.7    34    4.8   219    11.3   99999.0    0.00 
 124   14:40   0.48   56.7    33    5.2   226    10.2   99999.0    0.00 
 124   14:50   0.57   55.6    36    6.8   246    13.1   99999.0    0.00 
 124   15:00   0.97   57.2    35    5.1   271     8.4   99999.0    0.00 
 124   15:10   0.90   58.7    33    3.7   277     7.8   99999.0    0.00 
 124   15:20   0.89   58.7    32    6.1   127    13.1   99999.0    0.00 
 124   15:30   0.71   58.0    36    6.9    94    13.7   99999.0    0.00 
 124   15:40   0.28   53.5    44    5.8   107    11.3   99999.0    0.00 
 124   15:50   0.65   53.7    43    6.6   140    14.9   99999.0    0.00 
 124   16:00   0.40   54.0    42    5.9   151    11.3   99999.0    0.00 
 124   16:10   0.23   53.0    42    4.9   125     9.6   99999.0    0.00 
 124   16:20   0.42   53.7    39    4.9   143     9.6   99999.0    0.00 
 124   16:30   0.51   55.4    35    4.2   104     8.4   99999.0    0.01 
 124   16:40   0.46   56.9    33    5.8   113    10.2   99999.0    0.00 
 124   16:50   0.35   56.5    34    3.8   170     7.8   99999.0    0.00 
 124   17:00   0.34   56.9    33    2.0   198     4.2   99999.0    0.00 
 124   17:10   0.31   58.3    32    1.8   150     4.8   99999.0    0.00 
 124   17:20   0.20   58.0    32    2.4   161     5.4   99999.0    0.00 
 124   17:30   0.19   56.0    34    2.1   191     4.5   99999.0    0.00 
 124   17:40   0.21   57.5    32    1.6   207     3.0   99999.0    0.00 
 124   17:50   0.17   57.0    34    2.5   181     6.6   99999.0    0.00 
 124   18:00   0.14   56.0    35    3.1   153     6.0   99999.0    0.00 
 124   18:10   0.11   53.8    39    1.9   198     4.2   99999.0    0.00 
 124   18:20   0.08   52.3    44    1.5   179     3.6   99999.0    0.00 
 124   18:30   0.05   51.0    47    0.0   156     1.2   99999.0    0.00 
 124   18:40   0.01   49.1    53    0.0     0     0.0   99999.0    0.00 
 124   18:50   0.01   46.4    60    0.0     0     0.0   99999.0    0.00 
 124   19:00   0.01   43.8    65    1.9    68     3.6   99999.0    0.00 
 124   19:10   0.00   41.8    69    0.6    55     3.0   99999.0    0.00 
 124   19:20   0.00   40.3    73    1.7    57     3.0   99999.0    0.00 
 124   19:30   0.00   38.8    76    1.3    54     2.4   99999.0    0.00 
 124   19:40   0.00   37.8    78    0.8    50     2.4   99999.0    0.00 
 124   19:50   0.00   36.9    81    2.0    62     3.0   99999.0    0.00 
 124   20:00   0.00   36.2    82    1.8    57     3.0   99999.0    0.00 
 124   20:10   0.00   35.6    82    2.1    62     3.0   99999.0    0.00 
 124   20:20   0.00   35.0    84    2.0    58     3.0   99999.0    0.00 
 124   20:30   0.00   34.6    84    1.5    60     3.0   99999.0    0.00 
 124   20:40   0.00   34.1    86    1.5    68     2.4   99999.0    0.00 
 124   20:50   0.00   33.6    87    3.0    72     5.4   99999.0    0.00 
 124   21:00   0.00   33.9    86    1.3    46     3.6   99999.0    0.00 
 124   21:10   0.00   34.3    83    0.8    40     3.0   99999.0    0.00 
 124   21:20   0.00   34.1    82    1.7    49     3.6   99999.0    0.00 
 124   21:30   0.00   34.2    84    2.0    26     3.6   99999.0    0.00 
 124   21:40   0.00   34.7    81    0.4    38     1.8   99999.0    0.00 
 124   21:50   0.00   33.9    83    0.0     0     0.0   99999.0    0.00 
 124   22:00   0.00   33.5    84    0.0     0     0.0   99999.0    0.00 
 124   22:10   0.00   33.5    84    1.3    46     4.2   99999.0    0.00 
 124   22:20   0.00   34.2    83    1.5    60     4.2   99999.0    0.00 
 124   22:30   0.00   34.3    83    0.0     0     0.0   99999.0    0.00 
 124   22:40   0.00   33.0    86    0.9    48     2.4   99999.0    0.00 
 124   22:50   0.00   32.7    88    2.0    61     3.0   99999.0    0.00 
 124   23:00   0.00   32.8    89    0.7    28     2.4   99999.0    0.00 
 124   23:10   0.00   32.4    90    0.2    29     1.8   99999.0    0.00 
 124   23:20   0.00   31.6    91    0.5    88     2.4   99999.0    0.00 
 124   23:30   0.00   30.9    94    0.4    67     2.4   99999.0    0.00 
 124   23:40   0.00   30.5    95    1.4    28     3.0   99999.0    0.00 
 124   23:50   0.00   30.0    95    1.2    76     3.6   99999.0    0.00 
 125    0:00   0.00   29.8    96    1.3    68     3.0   99999.0    0.00 
 125    0:10   0.00   29.5    96    1.5    61     2.4   99999.0    0.00 
 125    0:20   0.00   29.2    97    1.1    67     3.0   99999.0    0.00 
 125    0:30   0.00   29.1    98    1.3    61     2.4   99999.0    0.00 
 125    0:40   0.00   29.0    98    0.1    52     1.2   99999.0    0.00 
 125    0:50   0.00   28.7    98    0.4    49     1.8   99999.0    0.00 
 125    1:00   0.00   28.0    98    0.2    52     1.8   99999.0    0.00 
 125    1:10   0.00   27.7    99    1.1    55     2.4   99999.0    0.00 
 125    1:20   0.00   27.5   100    0.2    47     1.8   99999.0    0.00 
 125    1:30   0.00   27.6   100    0.0     0     0.0   99999.0    0.00 
 125    1:40   0.00   27.7   100    0.0     0     0.0   99999.0    0.00 
 125    1:50   0.00   27.6   100    0.4    59     1.8   99999.0    0.00 
 125    2:00   0.00   27.7   100    1.4    74     3.6   99999.0    0.00 
 125    2:10   0.00   27.5   100    2.2    71     3.0   99999.0    0.00 
 125    2:20   0.00   27.6   100    1.8    65     3.0   99999.0    0.00 
 125    2:30   0.00   27.4   100    2.0    65     3.0   99999.0    0.00 
 125    2:40   0.00   27.4   100    1.3    67     2.4   99999.0    0.00 
 125    2:50   0.00   27.4   100    0.9    67     1.8   99999.0    0.00 
 125    3:00   0.00   27.3   100    1.5    70     3.0   99999.0    0.00 
 125    3:10   0.00   27.2   100    0.7    70     1.8   99999.0    0.00 
 125    3:20   0.00   27.3   100    0.8    71     1.8   99999.0    0.00 
 125    3:30   0.00   27.2   100    0.5    68     1.8   99999.0    0.00 
 125    3:40   0.00   27.1   100    1.6    65     2.4   99999.0    0.00 
 125    3:50   0.00   26.9   100    1.8    67     2.4   99999.0    0.00 
 125    4:00   0.00   26.6   100    1.6    66     2.4   99999.0    0.00 
 125    4:10   0.00   26.4   100    1.7    62     2.4   99999.0    0.00 
 125    4:20   0.00   26.4   100    1.6    65     2.4   99999.0    0.00 

Return to Cebollita Spring, Valles Caldera graphs page.


Western Regional Climate Center,wrcc@dri.edu